Time;durP1;ratioP1;P1;durP2;ratioP2;P2;SDS_P1;SDS_P2;PMS_P1;PMS_P2;Temp;Humidity;BMP_temperature;BMP_pressure;BME280_temperature;BME280_humidity;BME280_pressure;Samples;Min_cycle;Max_cycle;Signal;HPM_P1;HPM_P2
2022/12/14 00:01:24;;;;;;;12.25;6.43;;;;;;;0.25;55.53;98877.47;5014030;28;20567;-79
2022/12/14 00:03:51;;;;;;;11.88;5.93;;;;;;;0.24;55.75;98873.19;5013901;28;20143;-78
2022/12/14 00:06:19;;;;;;;14.02;7.22;;;;;;;0.23;55.34;98874.09;5013461;28;20065;-79
2022/12/14 00:08:47;;;;;;;13.38;6.35;;;;;;;0.22;55.70;98860.28;5013475;28;20081;-79
2022/12/14 00:11:14;;;;;;;13.02;6.57;;;;;;;0.23;55.40;98861.13;5013693;28;20140;-78
2022/12/14 00:13:42;;;;;;;14.82;7.22;;;;;;;0.23;55.23;98859.38;5013383;28;20112;-78
2022/12/14 00:16:11;;;;;;;14.82;6.80;;;;;;;0.23;55.30;98861.13;5013324;28;20092;-78
2022/12/14 00:18:39;;;;;;;10.55;6.25;;;;;;;0.23;55.49;98854.19;5013327;28;20050;-79
2022/12/14 00:21:11;;;;;;;13.45;6.47;;;;;;;0.23;55.19;98856.78;5013394;28;20053;-79
2022/12/14 00:23:39;;;;;;;12.25;6.43;;;;;;;0.24;55.44;98849.88;5013289;28;20062;-79
2022/12/14 00:26:23;;;;;;;14.43;6.80;;;;;;;0.24;55.37;98855.94;5012958;28;20145;-79
2022/12/14 00:28:51;;;;;;;13.60;6.20;;;;;;;0.23;55.35;98846.44;5013135;28;20089;-79
2022/12/14 00:31:18;;;;;;;11.65;6.35;;;;;;;0.22;55.37;98851.69;5013253;28;20060;-79
2022/12/14 00:33:45;;;;;;;13.43;6.88;;;;;;;0.21;55.53;98842.19;5013069;28;20544;-79
2022/12/14 00:36:14;;;;;;;12.75;6.65;;;;;;;0.19;55.71;98844.81;5012674;28;20153;-79
2022/12/14 00:38:41;;;;;;;14.13;6.07;;;;;;;0.19;55.18;98842.25;5013008;28;20089;-79
2022/12/14 00:41:08;;;;;;;11.52;5.65;;;;;;;0.19;55.10;98839.66;5012989;28;20085;-79
2022/12/14 00:43:35;;;;;;;11.13;5.80;;;;;;;0.18;55.58;98831.97;4995390;28;20078;-79
2022/12/14 00:46:01;;;;;;;10.80;5.35;;;;;;;0.18;55.48;98829.38;5012432;28;20508;-79
2022/12/14 00:48:28;;;;;;;10.32;5.57;;;;;;;0.17;55.15;98830.25;5012567;28;20050;-79
2022/12/14 00:50:55;;;;;;;10.88;5.78;;;;;;;0.16;55.36;98833.72;5012576;28;20058;-79
2022/12/14 00:53:23;;;;;;;11.13;5.60;;;;;;;0.15;55.58;98829.44;5012841;28;20057;-79
2022/12/14 00:55:50;;;;;;;12.02;5.57;;;;;;;0.15;55.42;98829.44;5012181;28;20622;-79
2022/12/14 00:58:19;;;;;;;10.65;5.55;;;;;;;0.14;55.27;98825.19;5012161;28;20527;-79
2022/12/14 01:00:47;;;;;;;9.45;5.13;;;;;;;0.14;55.20;98822.59;5012038;28;20140;-79
2022/12/14 01:03:13;;;;;;;11.90;5.18;;;;;;;0.12;55.56;98823.47;5012439;28;20089;-79
2022/12/14 01:05:40;;;;;;;11.32;5.55;;;;;;;0.14;55.19;98825.19;5012030;28;20149;-79
2022/12/14 01:10:39;;;;;;;10.00;5.43;;;;;;;0.11;54.70;98818.34;4993411;28;20058;-85
2022/12/14 01:13:05;;;;;;;9.43;5.50;;;;;;;0.12;55.33;98820.88;4994523;28;20054;-84
2022/12/14 01:15:34;;;;;;;8.80;4.50;;;;;;;0.10;54.78;98819.22;4994178;28;20085;-84
2022/12/14 01:18:00;;;;;;;10.43;5.22;;;;;;;0.08;55.45;98814.09;4994245;28;20134;-85
2022/12/14 01:20:29;;;;;;;10.43;5.28;;;;;;;0.06;55.12;98802.09;4995296;28;20078;-85
2022/12/14 01:22:56;;;;;;;9.40;4.95;;;;;;;0.06;55.26;98796.91;4995141;28;20062;-85
2022/12/14 01:25:22;;;;;;;10.70;5.60;;;;;;;0.05;55.08;98797.81;4977802;28;20058;-85
2022/12/14 01:27:49;;;;;;;9.90;5.38;;;;;;;0.03;54.66;98792.69;4994764;28;20109;-85
2022/12/14 01:30:18;;;;;;;9.30;4.82;;;;;;;0.02;54.63;98798.75;4995209;28;20498;-85
2022/12/14 01:32:45;;;;;;;8.25;4.18;;;;;;;0.02;54.96;98797.91;4994130;28;20058;-85
2022/12/14 01:35:13;;;;;;;7.75;4.13;;;;;;;0.00;54.78;98795.38;4977794;28;20058;-85
2022/12/14 01:37:40;;;;;;;7.65;4.40;;;;;;;0.03;54.98;98794.44;4977776;28;20085;-85
2022/12/14 01:40:07;;;;;;;9.50;5.00;;;;;;;0.02;54.99;98791.00;4977791;28;20058;-85
2022/12/14 01:42:37;;;;;;;7.65;4.50;;;;;;;0.03;55.09;98790.09;4977414;28;20069;-85
2022/12/14 01:45:04;;;;;;;7.75;4.57;;;;;;;0.06;54.74;98789.16;4993774;28;20453;-85
2022/12/14 01:47:41;;;;;;;8.23;4.30;;;;;;;0.05;54.58;98790.91;4993687;28;20069;-85
2022/12/14 01:50:30;;;;;;;6.47;3.67;;;;;;;0.05;54.19;98785.75;4994539;28;20058;-85
2022/12/14 01:53:01;;;;;;;9.85;4.40;;;;;;;0.10;54.33;98777.81;4995116;28;20569;-85
2022/12/14 01:55:34;;;;;;;7.97;3.53;;;;;;;0.11;54.25;98776.94;4994588;28;20451;-85
2022/12/14 01:58:07;;;;;;;7.05;3.75;;;;;;;0.12;54.62;98758.75;4993124;28;20109;-85
2022/12/14 02:00:39;;;;;;;6.40;3.70;;;;;;;0.15;54.44;98757.00;4977256;28;20464;-85
2022/12/14 02:03:09;;;;;;;7.60;3.88;;;;;;;0.17;54.96;98760.38;4977365;28;20078;-85
2022/12/14 02:05:41;;;;;;;7.30;3.92;;;;;;;0.19;54.54;98756.84;4994319;28;20156;-85
2022/12/14 02:08:07;;;;;;;5.55;2.85;;;;;;;0.23;54.83;98761.03;4994383;28;20450;-85
2022/12/14 02:10:34;;;;;;;8.73;3.50;;;;;;;0.25;54.47;98750.63;4977264;28;20050;-85
2022/12/14 02:13:16;;;;;;;6.35;3.20;;;;;;;0.26;53.79;98752.31;4976956;28;20101;-85
2022/12/14 02:15:43;;;;;;;7.80;4.05;;;;;;;0.30;54.99;98742.72;4994165;28;20085;-85
2022/12/14 02:18:16;;;;;;;6.97;3.97;;;;;;;0.31;54.16;98737.50;4977094;28;20051;-85
2022/12/14 02:21:04;;;;;;;;;;;;;;;0.34;53.83;98746.91;4993492;28;20109;-85
2022/12/14 02:23:49;;;;;;;7.35;3.63;;;;;;;0.35;53.45;98743.44;4977033;28;19922;-85
2022/12/14 02:26:43;;;;;;;6.57;3.53;;;;;;;0.34;53.52;98747.75;4994211;28;20101;-85
2022/12/14 02:29:48;;;;;;;7.25;3.17;;;;;;;0.32;53.40;98738.34;4992993;28;20121;-85
2022/12/14 02:32:29;;;;;;;6.80;3.80;;;;;;;0.34;53.08;98739.97;4987295;28;20112;-85
2022/12/14 02:35:23;;;;;;;6.10;3.13;;;;;;;0.34;53.27;98733.97;4976584;28;20496;-85
2022/12/14 02:38:11;;;;;;;7.90;3.55;;;;;;;0.32;53.51;98730.56;4976419;28;20062;-85
2022/12/14 02:41:12;;;;;;;6.03;3.58;;;;;;;0.32;53.53;98721.06;4993612;28;20054;-85
2022/12/14 02:44:08;;;;;;;7.85;3.78;;;;;;;0.32;53.27;98725.41;4992922;28;20488;-85
2022/12/14 02:46:41;;;;;;;7.28;4.05;;;;;;;0.34;53.53;98721.88;4976414;28;20120;-85
2022/12/14 02:49:30;;;;;;;7.18;3.72;;;;;;;0.32;53.61;98715.91;4993713;28;20483;-85
2022/12/14 02:52:21;;;;;;;7.38;3.85;;;;;;;0.32;53.37;98715.03;4993477;28;20506;-85
2022/12/14 02:55:03;;;;;;;7.60;3.67;;;;;;;0.31;53.24;98711.63;4993541;28;20058;-85
2022/12/14 02:57:34;;;;;;;;;;;;;;;0.33;53.43;98707.22;4976857;28;20058;-85
2022/12/14 03:00:04;;;;;;;6.43;3.15;;;;;;;0.34;53.50;98705.50;4993242;28;19922;-85
2022/12/14 03:02:34;;;;;;;6.60;3.55;;;;;;;0.31;53.53;98701.28;4993696;28;20051;-85
2022/12/14 03:05:01;;;;;;;6.22;3.53;;;;;;;0.29;53.45;98699.63;4993248;28;20058;-85
2022/12/14 03:07:54;;;;;;;7.00;3.92;;;;;;;0.23;52.76;98693.72;4975715;28;20059;-85
2022/12/14 03:10:35;;;;;;;6.78;3.80;;;;;;;0.23;53.55;98701.50;4975973;28;20137;-85
2022/12/14 03:13:28;;;;;;;6.43;3.63;;;;;;;0.20;53.49;98693.00;4993161;28;20058;-85
2022/12/14 03:16:06;;;;;;;6.95;4.28;;;;;;;0.16;52.92;98688.81;4976287;28;20058;-85
2022/12/14 03:18:38;;;;;;;8.30;4.20;;;;;;;0.12;53.46;98681.13;4992042;28;20062;-85
2022/12/14 03:21:09;;;;;;;7.60;3.95;;;;;;;0.11;53.31;98689.78;4992495;28;20108;-85
2022/12/14 03:23:40;;;;;;;10.52;4.35;;;;;;;0.08;53.15;98681.28;4991755;28;20059;-85
2022/12/14 03:26:09;;;;;;;7.82;4.30;;;;;;;0.07;53.41;98677.03;4975744;28;20066;-85
2022/12/14 03:28:47;;;;;;;6.53;3.70;;;;;;;0.03;52.99;98678.00;4992013;28;20071;-85
2022/12/14 03:31:25;;;;;;;8.07;4.18;;;;;;;0.01;52.88;98672.03;4976065;28;20081;-85
2022/12/14 03:33:54;;;;;;;7.32;4.15;;;;;;;0.02;53.52;98664.22;4976068;28;20070;-85
2022/12/14 03:36:25;;;;;;;7.28;3.92;;;;;;;0.01;53.06;98666.84;4992319;28;20494;-85
2022/12/14 03:38:59;;;;;;;6.82;3.70;;;;;;;-0.01;53.08;98666.88;4975631;28;20466;-85
2022/12/14 03:41:53;;;;;;;7.18;3.72;;;;;;;-0.03;52.77;98659.16;4993168;28;20510;-85
2022/12/14 03:44:33;;;;;;;7.85;3.85;;;;;;;-0.01;52.32;98652.22;4992772;28;20061;-85
2022/12/14 03:47:32;;;;;;;7.80;3.85;;;;;;;-0.03;52.77;98651.41;4898980;29;20083;-84
2022/12/14 03:50:20;;;;;;;8.60;3.88;;;;;;;-0.01;53.02;98653.94;4982684;28;20474;-85
2022/12/14 03:52:52;;;;;;;6.15;3.38;;;;;;;-0.01;52.66;98636.69;4993061;28;20086;-85
2022/12/14 03:55:41;;;;;;;7.40;4.15;;;;;;;-0.03;52.55;98646.22;4992797;28;20109;-85
2022/12/14 03:58:47;;;;;;;7.20;3.80;;;;;;;-0.04;52.67;98636.78;4992925;28;20073;-85
2022/12/14 04:01:51;;;;;;;7.75;4.00;;;;;;;-0.03;52.58;98640.22;4989851;28;20050;-85
2022/12/14 04:04:25;;;;;;;7.63;3.85;;;;;;;-0.03;52.87;98632.47;4992995;28;20061;-84
2022/12/14 04:07:13;;;;;;;7.03;3.45;;;;;;;-0.05;52.72;98635.09;4992387;28;20054;-85
2022/12/14 04:10:02;;;;;;;7.32;3.70;;;;;;;-0.05;52.68;98627.34;4975341;28;20051;-85
2022/12/14 04:21:28;;;;;;;7.43;4.20;;;;;;;-0.10;52.94;98610.28;4992861;28;20058;-85
2022/12/14 04:26:54;;;;;;;8.20;4.10;;;;;;;-0.17;53.07;98622.56;4992694;28;20055;-85
2022/12/14 04:32:24;;;;;;;8.48;4.35;;;;;;;-0.22;52.85;98620.09;4992830;28;20546;-82
2022/12/14 04:34:56;;;;;;;8.82;4.40;;;;;;;-0.24;53.13;98613.28;4994547;28;20521;-85
2022/12/14 04:37:25;;;;;;;;;;;;;;;-0.24;52.92;98610.69;4995562;28;20054;-85
2022/12/14 04:39:56;;;;;;;10.23;4.85;;;;;;;-0.25;53.25;98606.44;4996241;28;19922;-85
2022/12/14 04:42:29;;;;;;;8.38;4.57;;;;;;;-0.28;53.10;98603.06;4978925;28;20066;-85
2022/12/14 04:45:00;;;;;;;;;;;;;;;-0.27;53.45;98606.47;4979674;28;20120;-85
2022/12/14 04:47:34;;;;;;;8.93;4.47;;;;;;;-0.27;53.25;98611.63;4978640;28;20007;-85
2022/12/14 04:50:08;;;;;;;8.38;3.97;;;;;;;-0.29;53.25;98601.34;4978969;28;20054;-84
2022/12/14 04:52:42;;;;;;;10.10;4.78;;;;;;;-0.31;52.92;98605.72;4956282;28;20058;-85
2022/12/14 04:55:31;;;;;;;9.85;5.05;;;;;;;-0.33;53.09;98601.50;4977749;28;20466;-85
2022/12/14 04:58:08;;;;;;;13.05;6.13;;;;;;;-0.32;53.33;98590.25;4995747;28;20124;-85
2022/12/14 05:00:39;;;;;;;12.20;6.00;;;;;;;-0.33;53.48;98594.56;4995548;28;20078;-85
2022/12/14 05:03:28;;;;;;;10.95;5.57;;;;;;;-0.36;53.11;98588.66;4978932;28;20070;-85
2022/12/14 05:06:01;;;;;;;11.70;6.07;;;;;;;-0.37;53.13;98576.63;4978184;28;20085;-85
2022/12/14 05:08:46;;;;;;;9.75;5.35;;;;;;;-0.41;52.82;98579.31;4995467;28;20066;-85
2022/12/14 05:11:26;;;;;;;9.55;4.65;;;;;;;-0.44;52.92;98571.63;4994427;28;20194;-85
2022/12/14 05:14:21;;;;;;;14.27;6.30;;;;;;;-0.46;53.29;98575.16;4995598;28;20480;-85
2022/12/14 05:16:48;;;;;;;14.52;7.50;;;;;;;-0.50;53.44;98584.75;4995111;28;20494;-85
2022/12/14 05:19:15;;;;;;;16.98;8.20;;;;;;;-0.57;53.28;98573.75;4977907;28;20494;-85
2022/12/14 05:21:47;;;;;;;18.27;8.98;;;;;;;-0.66;53.28;98563.72;4978210;28;20058;-85
2022/12/14 05:24:15;;;;;;;18.55;9.13;;;;;;;-0.73;53.75;98557.03;4977984;28;20086;-84
2022/12/14 05:26:41;;;;;;;16.85;8.13;;;;;;;-0.81;53.45;98559.84;4993750;28;20085;-85
2022/12/14 05:29:08;;;;;;;18.02;8.57;;;;;;;-0.90;53.40;98566.13;4995224;28;20074;-85
2022/12/14 05:31:42;;;;;;;16.38;8.48;;;;;;;-1.01;53.14;98556.09;4995118;28;20077;-84
2022/12/14 05:34:14;;;;;;;16.30;8.15;;;;;;;-1.04;53.64;98548.47;4978422;28;20130;-85
2022/12/14 05:36:46;;;;;;;16.25;7.82;;;;;;;-1.11;53.59;98549.53;4994601;28;20104;-84
2022/12/14 05:39:13;;;;;;;16.95;7.38;;;;;;;-1.14;54.15;98542.72;4977452;28;20478;-85
2022/12/14 05:41:41;;;;;;;17.40;7.78;;;;;;;-1.18;53.89;98543.69;4995017;28;20050;-85
2022/12/14 05:44:07;;;;;;;17.25;7.82;;;;;;;-1.21;54.06;98542.03;4995071;28;20490;-85
2022/12/14 05:46:34;;;;;;;18.75;9.15;;;;;;;-1.26;54.02;98533.59;4976970;28;20142;-85
2022/12/14 05:49:01;;;;;;;14.27;7.68;;;;;;;-1.29;54.22;98525.06;4977404;28;20050;-85
2022/12/14 05:51:27;;;;;;;16.90;8.98;;;;;;;-1.33;53.96;98524.31;4994752;28;20062;-85
2022/12/14 05:53:57;;;;;;;18.55;8.73;;;;;;;-1.36;53.88;98534.72;4993460;28;20058;-85
2022/12/14 05:56:23;;;;;;;20.02;9.48;;;;;;;-1.40;54.07;98530.53;4994578;28;20504;-85
2022/12/14 05:58:51;;;;;;;19.73;9.25;;;;;;;-1.42;54.08;98529.72;4994367;28;20066;-85
2022/12/14 06:01:17;;;;;;;17.42;8.55;;;;;;;-1.45;54.20;98523.75;4977185;28;20454;-85
2022/12/14 06:03:50;;;;;;;17.08;8.30;;;;;;;-1.49;54.35;98522.16;4994537;28;20121;-85
2022/12/14 06:06:17;;;;;;;21.10;8.95;;;;;;;-1.50;54.19;98525.63;4977225;28;20066;-85
2022/12/14 06:08:44;;;;;;;18.23;8.90;;;;;;;-1.53;54.70;98523.13;4994412;28;20141;-85
2022/12/14 06:11:21;;;;;;;18.45;8.32;;;;;;;-1.60;54.54;98516.44;4976923;28;20470;-85
2022/12/14 06:13:48;;;;;;;16.13;8.52;;;;;;;-1.61;54.68;98512.19;4994499;28;20108;-85
2022/12/14 06:16:24;;;;;;;17.83;9.00;;;;;;;-1.66;54.47;98507.13;4994101;28;20060;-85
2022/12/14 06:18:53;;;;;;;19.00;9.10;;;;;;;-1.66;54.86;98503.69;4992962;28;20423;-85
2022/12/14 06:21:31;;;;;;;19.83;8.98;;;;;;;-1.69;54.39;98501.22;4994146;28;20085;-85
2022/12/14 06:23:58;;;;;;;20.90;9.75;;;;;;;-1.68;54.79;98506.34;4992839;28;20423;-85
2022/12/14 06:26:26;;;;;;;19.38;9.48;;;;;;;-1.69;54.83;98512.38;4993775;28;20054;-85
2022/12/14 06:28:54;;;;;;;18.60;10.15;;;;;;;-1.68;54.51;98510.66;4994021;28;20117;-84
2022/12/14 06:31:23;;;;;;;17.10;8.75;;;;;;;-1.67;54.94;98507.19;4994281;28;20083;-85
2022/12/14 06:33:50;;;;;;;15.95;8.55;;;;;;;-1.68;54.67;98501.19;4992924;28;20061;-85
2022/12/14 06:36:22;;;;;;;19.33;9.40;;;;;;;-1.67;54.80;98507.19;4993958;28;20443;-85
2022/12/14 06:38:58;;;;;;;18.60;9.48;;;;;;;-1.69;54.85;98498.66;4976589;28;20062;-85
2022/12/14 06:41:31;;;;;;;18.88;8.82;;;;;;;-1.68;54.52;98495.16;4993719;28;20089;-85
2022/12/14 06:44:04;;;;;;;;;;;;;;;-1.65;54.69;98498.50;4977089;28;20554;-85
2022/12/14 06:46:43;;;;;;;18.95;8.10;;;;;;;-1.67;54.43;98495.13;4993556;28;19922;-85
2022/12/14 06:49:13;;;;;;;16.70;8.65;;;;;;;-1.68;54.43;98492.59;4994003;28;20553;-85
2022/12/14 06:51:47;;;;;;;17.60;8.07;;;;;;;-1.71;54.41;98491.78;4976359;28;20124;-85
2022/12/14 06:54:15;;;;;;;18.08;8.95;;;;;;;-1.73;54.77;98495.28;4993611;28;20058;-86
2022/12/14 06:56:43;;;;;;;21.27;10.30;;;;;;;-1.76;55.01;98492.81;4991738;28;20058;-85
2022/12/14 06:59:11;;;;;;;16.88;9.57;;;;;;;-1.79;54.99;98493.75;4992658;28;20054;-84
2022/12/14 07:01:41;;;;;;;19.83;10.20;;;;;;;-1.83;54.78;98489.56;4993666;28;20542;-85
2022/12/14 07:04:08;;;;;;;19.65;10.25;;;;;;;-1.85;54.78;98493.88;4992511;28;20054;-84
2022/12/14 07:06:37;;;;;;;18.67;9.63;;;;;;;-1.90;54.65;98488.00;4993501;28;20062;-85
2022/12/14 07:09:05;;;;;;;23.02;10.43;;;;;;;-1.94;54.74;98484.69;4991992;23;20087;-79
2022/12/14 07:11:32;;;;;;;19.08;9.40;;;;;;;-1.98;55.19;98489.06;4952519;29;20134;-77
2022/12/14 07:14:00;;;;;;;19.08;9.23;;;;;;;-2.01;54.96;98477.97;4952468;29;20087;-77
2022/12/14 07:16:30;;;;;;;19.42;10.10;;;;;;;-2.04;55.06;98478.06;4952326;29;20113;-78
2022/12/14 07:18:56;;;;;;;18.33;9.60;;;;;;;-2.06;55.53;98479.84;4963069;28;20145;-77
2022/12/14 07:21:23;;;;;;;22.10;10.57;;;;;;;-2.08;55.13;98482.44;4971480;28;20117;-77
2022/12/14 07:23:53;;;;;;;20.45;10.27;;;;;;;-2.10;55.53;98473.91;4971709;28;20141;-76
2022/12/14 07:26:24;;;;;;;19.80;9.93;;;;;;;-2.13;55.30;98481.72;4954171;28;20055;-77
2022/12/14 07:28:52;;;;;;;21.20;10.85;;;;;;;-2.14;55.30;98475.72;4971501;28;20082;-76
2022/12/14 07:31:21;;;;;;;22.55;10.02;;;;;;;-2.14;55.71;98482.59;4971613;28;20149;-78
2022/12/14 07:33:51;;;;;;;21.33;10.30;;;;;;;-2.15;55.65;98478.31;4971213;28;20519;-79
2022/12/14 07:36:19;;;;;;;21.80;10.68;;;;;;;-2.16;55.58;98479.22;4971357;28;20145;-78
2022/12/14 07:38:47;;;;;;;19.77;10.32;;;;;;;-2.17;55.36;98493.00;4971174;28;20071;-78
2022/12/14 07:41:17;;;;;;;18.95;9.57;;;;;;;-2.20;55.27;98487.91;4971137;28;20509;-78
2022/12/14 07:43:49;;;;;;;17.73;9.05;;;;;;;-2.21;55.74;98491.38;4971277;28;20058;-79
2022/12/14 07:46:18;;;;;;;18.75;9.93;;;;;;;-2.24;55.53;98484.59;4971120;28;20090;-78
2022/12/14 07:48:47;;;;;;;18.80;9.73;;;;;;;-2.26;55.42;98486.34;4970893;28;20063;-78
2022/12/14 07:51:16;;;;;;;19.63;9.52;;;;;;;-2.29;55.48;98482.09;4970232;28;20098;-78
2022/12/14 07:53:43;;;;;;;22.55;9.50;;;;;;;-2.30;55.72;98492.44;4971070;28;20090;-78
2022/12/14 07:56:15;;;;;;;17.77;9.55;;;;;;;-2.34;55.60;98491.69;4971458;28;20480;-79
2022/12/14 07:58:41;;;;;;;16.08;6.28;;;;;;;-2.34;55.89;98496.84;4969709;28;20133;-78
2022/12/14 08:01:13;;;;;;;21.85;9.40;;;;;;;-2.36;55.93;98498.59;4970882;28;20102;-78
2022/12/14 08:03:46;;;;;;;19.58;9.63;;;;;;;-2.39;55.51;98489.22;4971252;28;20091;-79
2022/12/14 08:06:13;;;;;;;21.20;9.55;;;;;;;-2.40;55.76;98490.09;4969774;28;20058;-78
2022/12/14 08:08:40;;;;;;;18.10;9.07;;;;;;;-2.40;56.22;98481.50;4972399;28;20113;-78
2022/12/14 08:11:07;;;;;;;19.13;8.45;;;;;;;-2.40;55.97;98486.66;4974747;28;20078;-78
2022/12/14 08:13:35;;;;;;;17.33;9.27;;;;;;;-2.40;56.29;98484.94;4974587;28;20058;-78
2022/12/14 08:16:05;;;;;;;18.58;9.20;;;;;;;-2.39;55.91;98480.66;4974607;28;20062;-78
2022/12/14 08:18:32;;;;;;;21.60;9.38;;;;;;;-2.37;55.79;98482.31;4974457;28;20058;-78
2022/12/14 08:20:59;;;;;;;16.60;8.82;;;;;;;-2.36;55.79;98490.88;4973342;28;20105;-78
2022/12/14 08:23:26;;;;;;;17.83;8.80;;;;;;;-2.36;56.18;98486.56;4974664;28;20308;-78
2022/12/14 08:25:54;;;;;;;21.15;9.65;;;;;;;-2.35;55.70;98484.84;4974308;28;20098;-77
2022/12/14 08:28:22;;;;;;;17.38;8.90;;;;;;;-2.36;55.90;98486.56;4974063;28;20090;-78
2022/12/14 08:30:48;;;;;;;15.75;7.93;;;;;;;-2.37;56.22;98478.88;4974447;28;20126;-78
2022/12/14 08:33:15;;;;;;;16.67;8.25;;;;;;;-2.38;55.77;98485.78;4974509;28;20564;-79
2022/12/14 08:35:41;;;;;;;16.65;8.32;;;;;;;-2.38;56.24;98487.50;4974106;28;20445;-78
2022/12/14 08:38:08;;;;;;;17.60;8.82;;;;;;;-2.39;55.98;98488.38;4974049;28;20577;-79
2022/12/14 08:40:35;;;;;;;18.38;8.65;;;;;;;-2.39;55.88;98489.22;4973962;28;20138;-78
2022/12/14 08:43:02;;;;;;;18.70;9.18;;;;;;;-2.37;56.43;98486.59;4974101;28;20553;-79
2022/12/14 08:45:28;;;;;;;17.13;9.15;;;;;;;-2.38;55.73;98478.03;4974088;28;20055;-78
2022/12/14 08:47:59;;;;;;;22.20;8.82;;;;;;;-2.39;56.39;98483.22;4973969;28;20118;-78
2022/12/14 08:50:26;;;;;;;15.57;7.75;;;;;;;-2.39;55.96;98480.66;4974055;28;20055;-78
2022/12/14 08:52:53;;;;;;;18.73;9.07;;;;;;;-2.40;55.91;98473.78;4974058;28;20398;-78
2022/12/14 08:55:20;;;;;;;18.67;9.07;;;;;;;-2.42;56.07;98486.72;4973719;28;20142;-78
2022/12/14 08:57:53;;;;;;;14.98;8.23;;;;;;;-2.43;56.33;98474.72;4974114;28;20068;-79
2022/12/14 09:00:20;;;;;;;17.17;9.27;;;;;;;-2.42;56.43;98483.31;4973806;28;20082;-79
2022/12/14 09:02:49;;;;;;;17.35;8.98;;;;;;;-2.42;56.63;98483.31;4973724;28;20097;-78
2022/12/14 09:05:15;;;;;;;17.23;8.73;;;;;;;-2.40;56.21;98478.94;4973703;28;20098;-79
2022/12/14 09:07:42;;;;;;;15.45;8.05;;;;;;;-2.38;56.65;98483.19;4973810;28;20094;-78
2022/12/14 09:10:09;;;;;;;18.52;8.40;;;;;;;-2.35;56.23;98492.59;4973657;28;20055;-77
2022/12/14 09:12:36;;;;;;;15.70;8.52;;;;;;;-2.32;56.25;98492.47;4973819;28;20090;-78
2022/12/14 09:15:03;;;;;;;16.67;8.75;;;;;;;-2.28;56.75;98493.28;4973662;28;20580;-76
2022/12/14 09:17:29;;;;;;;17.65;9.27;;;;;;;-2.26;56.61;98487.19;4972388;28;20094;-79
2022/12/14 09:19:56;;;;;;;15.00;7.68;;;;;;;-2.23;56.46;98489.69;4972822;28;20150;-78
2022/12/14 09:22:23;;;;;;;16.55;8.68;;;;;;;-2.18;56.85;98491.28;4973378;28;20165;-79
2022/12/14 09:24:50;;;;;;;17.58;9.25;;;;;;;-2.15;56.52;98488.63;4973272;28;20344;-78
2022/12/14 09:27:17;;;;;;;15.63;7.78;;;;;;;-2.11;56.47;98488.53;4973350;28;20103;-79
2022/12/14 09:29:43;;;;;;;14.80;8.02;;;;;;;-2.06;56.38;98479.84;4973414;28;20139;-78
2022/12/14 09:32:10;;;;;;;13.45;7.95;;;;;;;-2.01;56.44;98489.16;4973356;28;20158;-78
2022/12/14 09:34:36;;;;;;;17.08;8.50;;;;;;;-1.98;56.70;98486.47;4973303;28;20058;-78
2022/12/14 09:37:06;;;;;;;15.77;8.20;;;;;;;-1.93;56.57;98485.50;4972849;28;20150;-78
2022/12/14 09:39:33;;;;;;;15.65;8.00;;;;;;;-1.88;56.33;98483.66;4973422;28;20059;-79
2022/12/14 09:42:02;;;;;;;14.77;8.00;;;;;;;-1.85;56.59;98483.56;4973186;28;20055;-79
2022/12/14 09:44:47;;;;;;;14.60;7.88;;;;;;;-1.79;56.57;98487.72;4973097;28;20105;-79
2022/12/14 09:47:21;;;;;;;14.45;7.93;;;;;;;-1.75;56.76;98474.69;4972880;28;20063;-78
2022/12/14 09:50:00;;;;;;;17.30;8.43;;;;;;;-1.70;56.79;98469.41;4973294;28;20138;-78
2022/12/14 09:52:42;;;;;;;13.18;7.45;;;;;;;-1.64;57.14;98465.81;4973095;28;20110;-79
2022/12/14 09:55:44;;;;;;;14.18;8.00;;;;;;;-1.57;56.66;98467.34;4972886;28;20101;-79
2022/12/14 09:58:16;;;;;;;14.23;6.70;;;;;;;-1.49;56.34;98464.53;4972854;28;20054;-79
2022/12/14 10:00:50;;;;;;;15.53;7.50;;;;;;;-1.43;56.48;98468.69;4972839;28;20121;-78
2022/12/14 10:03:50;;;;;;;17.02;8.25;;;;;;;-1.39;56.42;98459.97;4973057;28;20413;-79
2022/12/14 10:06:20;;;;;;;11.50;6.78;;;;;;;-1.32;56.38;98470.06;4972993;28;20093;-78
2022/12/14 10:08:58;;;;;;;14.02;7.60;;;;;;;-1.28;56.42;98457.91;4971264;28;20134;-78
2022/12/14 10:11:33;;;;;;;14.88;7.38;;;;;;;-1.22;56.49;98467.19;4972678;28;20087;-78
2022/12/14 10:14:22;;;;;;;15.57;7.55;;;;;;;-1.18;56.61;98453.31;4972423;28;20097;-78
2022/12/14 10:17:25;;;;;;;14.63;7.38;;;;;;;-1.13;56.45;98456.59;4972085;28;20521;-78
2022/12/14 10:20:30;;;;;;;13.35;6.60;;;;;;;-1.07;55.98;98446.09;4968390;28;20090;-78
2022/12/14 10:23:00;;;;;;;12.18;6.50;;;;;;;-1.00;56.55;98446.75;4968695;28;20054;-78
2022/12/14 10:25:31;;;;;;;14.10;6.95;;;;;;;-0.95;56.03;98450.03;4972152;28;20137;-78
2022/12/14 10:28:04;;;;;;;13.05;6.38;;;;;;;-0.91;56.03;98450.78;4972016;28;20572;-78
2022/12/14 10:30:41;;;;;;;11.30;6.32;;;;;;;-0.84;56.02;98451.41;4972132;28;20494;-78
2022/12/14 10:33:10;;;;;;;10.70;5.93;;;;;;;-0.80;56.04;98464.22;4971336;28;20062;-78
2022/12/14 10:35:50;;;;;;;16.30;6.80;;;;;;;-0.75;55.63;98456.28;4970912;28;20086;-78
2022/12/14 10:38:22;;;;;;;12.65;6.60;;;;;;;-0.68;55.75;98454.34;4971847;28;20101;-77
2022/12/14 10:40:52;;;;;;;10.30;6.13;;;;;;;-0.61;56.16;98449.84;4972070;28;20236;-77
2022/12/14 10:43:57;;;;;;;12.68;6.68;;;;;;;-0.57;55.30;98439.34;4972170;28;20070;-77
2022/12/14 10:46:45;;;;;;;12.75;6.47;;;;;;;-0.50;55.78;98444.31;4971700;28;20050;-78
2022/12/14 10:49:22;;;;;;;11.68;6.25;;;;;;;-0.43;55.61;98441.50;4971970;28;20054;-77
2022/12/14 10:51:54;;;;;;;13.23;6.13;;;;;;;-0.36;55.60;98436.09;4971787;28;20109;-78
2022/12/14 10:54:37;;;;;;;11.02;5.75;;;;;;;-0.29;55.22;98435.00;4972062;28;20149;-78
2022/12/14 10:57:04;;;;;;;10.07;5.68;;;;;;;-0.19;55.67;98444.13;4971502;28;20107;-78
2022/12/14 10:59:35;;;;;;;10.35;5.30;;;;;;;-0.12;55.09;98441.34;4971801;28;20059;-77
2022/12/14 11:02:26;;;;;;;10.55;5.93;;;;;;;-0.03;55.12;98433.28;4971770;28;20601;-77
2022/12/14 11:04:59;;;;;;;9.88;5.40;;;;;;;0.07;55.49;98436.38;4971794;28;20063;-78
2022/12/14 11:07:37;;;;;;;13.63;7.07;;;;;;;0.17;55.37;98437.75;4971462;28;20508;-78
2022/12/14 11:10:22;;;;;;;10.20;6.22;;;;;;;0.33;56.09;98435.44;4971676;28;20125;-78
2022/12/14 11:12:59;;;;;;;11.50;6.15;;;;;;;0.61;57.24;98431.84;4971531;28;20051;-78
2022/12/14 11:15:32;;;;;;;10.05;6.07;;;;;;;1.00;59.07;98426.91;4971601;28;20085;-78
2022/12/14 11:18:02;;;;;;;11.80;6.20;;;;;;;1.54;61.72;98424.75;4971373;28;20262;-78
2022/12/14 11:20:29;;;;;;;14.57;7.60;;;;;;;2.22;63.43;98418.41;4971540;28;20051;-78
2022/12/14 11:23:04;;;;;;;11.13;7.75;;;;;;;3.00;62.84;98417.47;4971508;28;20597;-78
2022/12/14 11:25:43;;;;;;;16.40;8.52;;;;;;;3.93;59.82;98411.25;4971121;28;20122;-79
2022/12/14 11:28:31;;;;;;;17.25;9.93;;;;;;;4.93;58.35;98405.97;4969925;28;20097;-78
2022/12/14 11:31:12;;;;;;;13.57;8.65;;;;;;;5.91;62.41;98410.03;4971633;28;20073;-78
2022/12/14 11:33:43;;;;;;;11.25;8.10;;;;;;;6.86;60.08;98405.16;4971398;28;20054;-78
2022/12/14 11:36:29;;;;;;;12.80;7.40;;;;;;;7.84;55.23;98408.44;4971305;28;20066;-78
2022/12/14 11:38:59;;;;;;;10.57;7.53;;;;;;;8.73;58.42;98399.78;4971256;28;20090;-78
2022/12/14 11:41:35;;;;;;;10.15;7.53;;;;;;;9.57;52.41;98406.03;4971513;28;20121;-79
2022/12/14 11:44:04;;;;;;;11.05;7.55;;;;;;;10.34;54.41;98395.84;4972642;28;20058;-79
2022/12/14 11:47:14;;;;;;;9.57;7.45;;;;;;;11.11;49.94;98396.84;4975234;28;20127;-79
2022/12/14 11:49:40;;;;;;;8.90;7.15;;;;;;;11.88;52.92;98396.69;4974958;28;20101;-78
2022/12/14 11:52:07;;;;;;;9.88;7.70;;;;;;;12.46;51.39;98399.78;4975162;28;20055;-78
2022/12/14 11:54:36;;;;;;;10.48;7.45;;;;;;;12.97;49.50;98405.06;4974911;28;20117;-79
2022/12/14 11:57:12;;;;;;;9.82;7.45;;;;;;;13.46;46.22;98405.09;4974746;28;20089;-79
2022/12/14 11:59:44;;;;;;;12.10;7.50;;;;;;;13.96;48.23;98413.84;4975110;28;20097;-78
2022/12/14 12:02:19;;;;;;;10.23;7.65;;;;;;;14.38;44.56;98415.25;4975050;28;20140;-78
2022/12/14 12:04:54;;;;;;;9.82;7.35;;;;;;;14.79;45.21;98406.16;4957597;28;20151;-79
2022/12/14 12:07:29;;;;;;;10.00;7.63;;;;;;;15.15;42.49;98411.50;4974682;28;20133;-78
2022/12/14 12:10:05;;;;;;;10.40;7.95;;;;;;;15.48;42.23;98406.50;4974669;28;20521;-79
2022/12/14 12:12:32;;;;;;;10.38;7.82;;;;;;;15.80;43.88;98403.41;4974978;28;20051;-79
2022/12/14 12:14:59;;;;;;;10.70;8.02;;;;;;;16.04;42.89;98394.00;4974605;28;20082;-78
2022/12/14 12:17:41;;;;;;;10.60;7.40;;;;;;;16.19;39.61;98389.78;4973075;28;20149;-78